Time;durP1;ratioP1;P1;durP2;ratioP2;P2;SDS_P1;SDS_P2;PMS_P1;PMS_P2;Temp;Humidity;BMP_temperature;BMP_pressure;BME280_temperature;BME280_humidity;BME280_pressure;Samples;Min_cycle;Max_cycle;Signal;HPM_P1;HPM_P2
2023/09/19 00:00:01;;;;;;;1.13;0.53;;;16.60;99.90;;;;;;5072928;28;20197;-54
2023/09/19 00:02:29;;;;;;;2.30;0.50;;;16.60;99.90;;;;;;5072752;28;20672;-55
2023/09/19 00:04:56;;;;;;;0.40;0.40;;;16.60;99.90;;;;;;5055027;28;20221;-54
2023/09/19 00:07:23;;;;;;;0.30;0.30;;;16.60;99.90;;;;;;5057174;28;20201;-54
2023/09/19 00:09:50;;;;;;;0.57;0.57;;;16.60;99.90;;;;;;5049511;28;20202;-54
2023/09/19 00:12:17;;;;;;;1.47;0.50;;;16.60;99.90;;;;;;5051173;28;20198;-54
2023/09/19 00:14:44;;;;;;;1.33;0.60;;;16.60;99.90;;;;;;5050916;28;20237;-54
2023/09/19 00:17:13;;;;;;;0.40;0.40;;;16.60;99.90;;;;;;5052392;28;20297;-54
2023/09/19 00:19:42;;;;;;;0.57;0.50;;;16.50;99.90;;;;;;5058597;28;20201;-54
2023/09/19 00:22:09;;;;;;;1.43;0.60;;;16.50;99.90;;;;;;5048190;28;20272;-54
2023/09/19 00:24:36;;;;;;;1.03;0.70;;;16.50;99.90;;;;;;5048203;28;20218;-54
2023/09/19 00:27:05;;;;;;;0.67;0.50;;;16.50;99.90;;;;;;5045902;28;20205;-54
2023/09/19 00:29:32;;;;;;;2.07;0.40;;;16.40;99.90;;;;;;5046324;28;20202;-54
2023/09/19 00:32:00;;;;;;;0.77;0.63;;;16.50;99.90;;;;;;5050861;28;20208;-54
2023/09/19 00:34:29;;;;;;;1.30;0.50;;;16.40;99.90;;;;;;5044504;28;20256;-54
2023/09/19 00:36:56;;;;;;;0.70;0.70;;;16.40;99.90;;;;;;5044090;28;20204;-54
2023/09/19 00:39:25;;;;;;;1.07;0.67;;;16.50;99.90;;;;;;5054962;28;20202;-54
2023/09/19 00:41:52;;;;;;;0.53;0.50;;;16.40;99.90;;;;;;5048490;28;20197;-54
2023/09/19 00:44:23;;;;;;;2.20;0.80;;;16.30;99.90;;;;;;5059605;28;20197;-54
2023/09/19 00:46:51;;;;;;;0.70;0.70;;;16.30;99.90;;;;;;5066811;28;20280;-54
2023/09/19 00:49:20;;;;;;;0.57;0.57;;;16.20;99.90;;;;;;5058576;28;20230;-54
2023/09/19 00:51:49;;;;;;;1.13;0.60;;;16.20;99.90;;;;;;5062143;28;20713;-54
2023/09/19 00:54:22;;;;;;;1.97;1.77;;;16.20;99.90;;;;;;5060761;28;20266;-54
2023/09/19 00:56:50;;;;;;;1.77;0.60;;;16.20;99.90;;;;;;5061230;28;20232;-54
2023/09/19 00:59:17;;;;;;;0.73;0.73;;;16.20;99.90;;;;;;5068822;28;20259;-57
2023/09/19 01:01:45;;;;;;;0.60;0.60;;;16.10;99.90;;;;;;5058818;28;20206;-54
2023/09/19 01:04:13;;;;;;;1.77;0.73;;;16.20;99.90;;;;;;5031666;28;20678;-54
2023/09/19 01:06:41;;;;;;;1.03;0.80;;;16.20;99.90;;;;;;5046718;28;20291;-54
2023/09/19 01:09:10;;;;;;;1.80;0.53;;;16.20;99.90;;;;;;5063285;28;20197;-54
2023/09/19 01:11:44;;;;;;;0.93;0.80;;;16.10;99.90;;;;;;5052931;28;20229;-54
2023/09/19 01:14:32;;;;;;;1.30;0.77;;;16.20;99.90;;;;;;5042114;28;20300;-54
2023/09/19 01:17:08;;;;;;;0.70;0.63;;;16.20;99.90;;;;;;5032915;28;20210;-54
2023/09/19 01:20:25;;;;;;;2.30;0.80;;;16.20;99.90;;;;;;5031523;28;20198;-54
2023/09/19 01:23:08;;;;;;;0.90;0.80;;;16.20;99.90;;;;;;5039554;28;20263;-54
2023/09/19 01:26:08;;;;;;;2.23;0.70;;;16.20;99.90;;;;;;5054336;28;20218;-54
2023/09/19 01:28:55;;;;;;;3.37;0.70;;;16.30;99.90;;;;;;5061345;28;20649;-54
2023/09/19 01:31:25;;;;;;;0.50;0.50;;;16.30;99.90;;;;;;5060881;28;20731;-54
2023/09/19 01:33:59;;;;;;;0.67;0.60;;;16.30;99.90;;;;;;5056850;28;20201;-54
2023/09/19 01:36:30;;;;;;;9.40;0.70;;;16.40;99.90;;;;;;5050641;28;20238;-54
2023/09/19 01:39:00;;;;;;;2.17;1.00;;;16.40;99.90;;;;;;5053065;28;20301;-54
2023/09/19 01:41:41;;;;;;;0.77;0.77;;;16.30;99.90;;;;;;5050066;28;20204;-54
2023/09/19 01:44:13;;;;;;;0.80;0.80;;;16.30;99.90;;;;;;5051476;28;20221;-54
2023/09/19 01:46:43;;;;;;;1.90;0.70;;;16.30;99.90;;;;;;5050845;28;20202;-54
2023/09/19 01:49:25;;;;;;;9.20;2.93;;;16.30;99.90;;;;;;5050505;28;20209;-54
2023/09/19 01:52:06;;;;;;;0.77;0.77;;;16.30;99.90;;;;;;5055472;28;20247;-54
2023/09/19 01:54:40;;;;;;;0.80;0.70;;;16.30;99.90;;;;;;5058127;28;20304;-54
2023/09/19 01:57:16;;;;;;;0.73;0.73;;;16.40;99.90;;;;;;5057353;28;20262;-54
2023/09/19 01:59:49;;;;;;;1.53;0.63;;;16.30;99.90;;;;;;5067112;28;20251;-54
2023/09/19 02:02:18;;;;;;;0.60;0.60;;;16.30;99.90;;;;;;5066612;28;20280;-54
2023/09/19 02:04:45;;;;;;;0.47;0.47;;;16.30;99.90;;;;;;5062674;28;20664;-54
2023/09/19 02:07:16;;;;;;;0.50;0.50;;;16.30;99.90;;;;;;5070717;28;20258;-54
2023/09/19 02:09:43;;;;;;;0.80;0.63;;;16.20;99.90;;;;;;5070881;28;20696;-54
2023/09/19 02:12:10;;;;;;;1.63;0.50;;;16.30;99.90;;;;;;5050255;28;20206;-54
2023/09/19 02:14:37;;;;;;;1.50;0.70;;;16.20;99.90;;;;;;5057590;28;20275;-54
2023/09/19 02:17:11;;;;;;;1.80;0.67;;;16.20;99.90;;;;;;5058716;28;20252;-54
2023/09/19 02:19:40;;;;;;;0.50;0.40;;;16.20;99.90;;;;;;5050991;28;20202;-54
2023/09/19 02:22:10;;;;;;;1.03;0.57;;;16.30;99.90;;;;;;5050740;28;20677;-54
2023/09/19 02:24:37;;;;;;;0.50;0.50;;;16.30;99.90;;;;;;5050724;28;20218;-54
2023/09/19 02:27:05;;;;;;;0.53;0.50;;;16.30;99.90;;;;;;5047479;28;20202;-54
2023/09/19 02:29:34;;;;;;;1.63;0.60;;;16.30;99.90;;;;;;5046220;28;20675;-54
2023/09/19 02:32:02;;;;;;;0.43;0.43;;;16.30;99.90;;;;;;5060571;28;20634;-54
2023/09/19 02:34:29;;;;;;;0.90;0.70;;;16.30;99.90;;;;;;5054980;28;20705;-54
2023/09/19 02:36:57;;;;;;;0.60;0.60;;;16.30;99.90;;;;;;5058514;28;20300;-55
2023/09/19 02:39:24;;;;;;;0.50;0.50;;;16.30;99.90;;;;;;5048843;28;20209;-54
2023/09/19 02:41:51;;;;;;;2.30;1.00;;;16.30;99.90;;;;;;5047262;28;20205;-54
2023/09/19 02:44:20;;;;;;;1.13;0.70;;;16.30;99.90;;;;;;5050332;28;20202;-54
2023/09/19 02:46:48;;;;;;;1.23;1.00;;;16.30;99.90;;;;;;5047720;28;20212;-54
2023/09/19 02:49:15;;;;;;;0.60;0.60;;;16.30;99.90;;;;;;5054058;28;20259;-54
2023/09/19 02:51:42;;;;;;;1.90;0.90;;;16.30;99.90;;;;;;5062117;28;20209;-54
2023/09/19 02:54:11;;;;;;;0.70;0.70;;;16.30;99.90;;;;;;5071869;23;20499;-55
2023/09/19 02:56:38;;;;;;;0.63;0.63;;;16.30;99.90;;;;;;5009417;28;20245;-55
2023/09/19 02:59:06;;;;;;;2.00;0.77;;;16.30;99.90;;;;;;5014784;28;20204;-55
2023/09/19 03:01:33;;;;;;;0.80;0.80;;;16.30;99.90;;;;;;5006891;28;20261;-55
2023/09/19 03:04:00;;;;;;;0.73;0.70;;;16.30;99.90;;;;;;5014562;28;20210;-55
2023/09/19 03:06:27;;;;;;;1.23;1.13;;;16.30;99.90;;;;;;5000580;28;20208;-55
2023/09/19 03:08:55;;;;;;;2.57;0.57;;;16.30;99.90;;;;;;4995281;28;20200;-55
2023/09/19 03:11:24;;;;;;;0.70;0.70;;;16.30;99.90;;;;;;4993029;28;20253;-55
2023/09/19 03:13:54;;;;;;;0.60;0.60;;;16.30;99.90;;;;;;5011500;28;20257;-55
2023/09/19 03:16:22;;;;;;;1.13;0.40;;;16.30;99.90;;;;;;5013158;28;20219;-55
2023/09/19 03:18:49;;;;;;;0.40;0.40;;;16.30;99.90;;;;;;5014570;28;20298;-55
2023/09/19 03:21:16;;;;;;;0.93;0.77;;;16.20;99.90;;;;;;5013418;28;20207;-55
2023/09/19 03:23:45;;;;;;;0.70;0.70;;;16.20;99.90;;;;;;5002363;28;20208;-55
2023/09/19 03:26:13;;;;;;;1.03;0.70;;;16.20;99.90;;;;;;4998787;28;20219;-55
2023/09/19 03:28:42;;;;;;;1.57;1.13;;;16.20;99.90;;;;;;5009926;28;20203;-55
2023/09/19 03:31:09;;;;;;;1.67;0.60;;;16.30;99.90;;;;;;5014106;28;20261;-56
2023/09/19 03:33:37;;;;;;;0.70;0.70;;;16.30;99.90;;;;;;5014156;28;20211;-55
2023/09/19 03:36:05;;;;;;;0.83;0.57;;;16.30;99.90;;;;;;5002945;28;20232;-55
2023/09/19 03:38:33;;;;;;;0.97;0.70;;;16.30;99.90;;;;;;5006775;28;20211;-55
2023/09/19 03:41:00;;;;;;;1.37;0.73;;;16.30;99.90;;;;;;5004610;28;20231;-55
2023/09/19 03:43:27;;;;;;;3.30;0.73;;;16.30;99.90;;;;;;5002940;28;20204;-55
2023/09/19 03:45:56;;;;;;;1.50;1.40;;;16.30;99.90;;;;;;4993195;28;20646;-55
2023/09/19 03:48:23;;;;;;;0.60;0.60;;;16.30;99.90;;;;;;4993918;28;20211;-55
2023/09/19 03:50:51;;;;;;;2.03;0.63;;;16.30;99.90;;;;;;5010505;28;20694;-55
2023/09/19 03:53:17;;;;;;;3.10;0.60;;;16.20;99.90;;;;;;5014028;28;20284;-55
2023/09/19 03:55:46;;;;;;;1.17;1.07;;;16.30;99.90;;;;;;5013155;28;20695;-55
2023/09/19 03:58:13;;;;;;;1.23;0.60;;;16.30;99.90;;;;;;4999735;28;20307;-55
2023/09/19 04:00:40;;;;;;;2.17;0.73;;;16.20;99.90;;;;;;4991887;28;20282;-55
2023/09/19 04:03:10;;;;;;;1.60;0.73;;;16.30;99.90;;;;;;4997502;28;20200;-55
2023/09/19 04:05:37;;;;;;;1.10;0.53;;;16.30;99.90;;;;;;5012346;28;20212;-55
2023/09/19 04:08:05;;;;;;;2.67;0.60;;;16.20;99.90;;;;;;5013543;28;20253;-55
2023/09/19 04:10:32;;;;;;;0.77;0.77;;;16.20;99.90;;;;;;5004042;28;20269;-55
2023/09/19 04:12:59;;;;;;;0.60;0.60;;;16.20;99.90;;;;;;4994585;28;20199;-55
2023/09/19 04:15:26;;;;;;;1.90;0.70;;;16.30;99.90;;;;;;4995578;28;20219;-55
2023/09/19 04:17:53;;;;;;;1.13;1.03;;;16.20;99.90;;;;;;4996466;28;20208;-55
2023/09/19 04:20:23;;;;;;;0.50;0.50;;;16.20;99.90;;;;;;4993531;28;20208;-55
2023/09/19 04:22:50;;;;;;;2.10;0.70;;;16.20;99.90;;;;;;4993163;28;20235;-55
2023/09/19 04:25:17;;;;;;;0.60;0.60;;;16.20;99.90;;;;;;4991601;28;20263;-55
2023/09/19 04:27:46;;;;;;;1.27;0.53;;;16.10;99.90;;;;;;4993358;28;20231;-55
2023/09/19 04:30:14;;;;;;;3.03;1.53;;;16.20;99.90;;;;;;5000092;28;20230;-55
2023/09/19 04:32:42;;;;;;;2.03;0.53;;;16.10;99.90;;;;;;4993506;28;20199;-57
2023/09/19 04:35:10;;;;;;;0.50;0.47;;;16.10;99.90;;;;;;4992990;28;20220;-55
2023/09/19 04:37:42;;;;;;;0.83;0.70;;;16.20;99.90;;;;;;4992824;28;20783;-55
2023/09/19 04:40:14;;;;;;;0.93;0.63;;;16.30;99.90;;;;;;4993019;28;20204;-55
2023/09/19 04:42:41;;;;;;;3.53;0.53;;;16.20;99.90;;;;;;4998176;28;20681;-55
2023/09/19 04:45:10;;;;;;;2.30;0.80;;;16.20;99.90;;;;;;4991348;28;20223;-55
2023/09/19 04:47:38;;;;;;;0.60;0.60;;;16.20;99.90;;;;;;4992625;28;20286;-55
2023/09/19 04:50:13;;;;;;;1.90;1.00;;;16.10;99.90;;;;;;5001121;28;20210;-55
2023/09/19 04:52:44;;;;;;;1.67;0.93;;;16.10;99.90;;;;;;4990701;28;20286;-55
2023/09/19 04:55:16;;;;;;;1.40;0.93;;;16.10;99.90;;;;;;4992695;28;20270;-55
2023/09/19 04:57:45;;;;;;;1.17;0.77;;;16.20;99.90;;;;;;4992795;28;20226;-55
2023/09/19 05:00:14;;;;;;;1.00;0.70;;;16.10;99.90;;;;;;4992820;28;20290;-55
2023/09/19 05:02:41;;;;;;;1.70;0.90;;;16.10;99.90;;;;;;4991103;28;20262;-55
2023/09/19 05:05:10;;;;;;;1.53;1.10;;;16.10;99.90;;;;;;4992468;28;20641;-55
2023/09/19 05:07:36;;;;;;;1.47;0.80;;;16.10;99.90;;;;;;4992248;28;20203;-56
2023/09/19 05:10:06;;;;;;;0.80;0.80;;;16.10;99.90;;;;;;4992882;28;20628;-55
2023/09/19 05:12:35;;;;;;;3.30;0.83;;;16.10;99.90;;;;;;4992698;28;20207;-55
2023/09/19 05:15:02;;;;;;;1.33;1.30;;;16.20;99.90;;;;;;4992154;28;20307;-55
2023/09/19 05:17:29;;;;;;;1.70;0.70;;;16.20;99.90;;;;;;4992032;28;20204;-55
2023/09/19 05:19:56;;;;;;;2.57;1.23;;;16.10;99.90;;;;;;4991649;28;20212;-55
2023/09/19 05:22:24;;;;;;;1.23;0.90;;;16.10;99.90;;;;;;4992425;28;20203;-55
2023/09/19 05:24:52;;;;;;;1.27;1.07;;;16.20;99.90;;;;;;4999526;28;20231;-55
2023/09/19 05:27:21;;;;;;;1.33;1.23;;;16.10;99.90;;;;;;4990928;28;20287;-55
2023/09/19 05:29:50;;;;;;;1.10;0.97;;;16.20;99.90;;;;;;4992333;28;20286;-55
2023/09/19 05:32:19;;;;;;;3.00;2.20;;;16.20;99.90;;;;;;4984376;28;20200;-55
2023/09/19 05:34:46;;;;;;;1.30;1.07;;;16.20;99.90;;;;;;4983690;28;20903;-55
2023/09/19 05:37:15;;;;;;;1.33;1.23;;;16.20;99.90;;;;;;4991092;28;20729;-55
2023/09/19 05:39:43;;;;;;;1.77;1.33;;;16.30;99.90;;;;;;4992246;28;20199;-55
2023/09/19 05:42:10;;;;;;;0.97;0.70;;;16.30;99.90;;;;;;4991835;28;20215;-55
2023/09/19 05:44:38;;;;;;;2.77;1.10;;;16.40;99.90;;;;;;4996892;28;20322;-55
2023/09/19 05:47:05;;;;;;;3.97;1.40;;;16.30;99.90;;;;;;4992998;28;20196;-55
2023/09/19 05:49:32;;;;;;;0.87;0.87;;;16.40;99.90;;;;;;4991762;28;20265;-56
2023/09/19 05:52:01;;;;;;;1.20;1.10;;;16.40;99.90;;;;;;4991881;28;20698;-55
2023/09/19 05:54:27;;;;;;;0.80;0.80;;;16.40;99.90;;;;;;4989088;28;20236;-55
2023/09/19 05:56:54;;;;;;;1.00;0.80;;;16.40;99.90;;;;;;4988146;28;20231;-54
2023/09/19 05:59:21;;;;;;;2.43;1.20;;;16.50;99.90;;;;;;4984509;28;20204;-55
2023/09/19 06:01:49;;;;;;;0.80;0.80;;;16.50;99.90;;;;;;4990387;28;20259;-55
2023/09/19 06:04:16;;;;;;;1.37;1.10;;;16.50;99.90;;;;;;4982925;28;20216;-55
2023/09/19 06:06:44;;;;;;;1.80;1.10;;;16.40;99.90;;;;;;4991411;28;20203;-55
2023/09/19 06:09:11;;;;;;;1.63;1.30;;;16.50;99.90;;;;;;4991791;28;20211;-55
2023/09/19 06:11:38;;;;;;;4.20;1.33;;;16.50;99.90;;;;;;4990549;28;20204;-55
2023/09/19 06:14:06;;;;;;;1.80;1.60;;;16.60;99.90;;;;;;4991546;28;20208;-55
2023/09/19 06:16:33;;;;;;;1.50;1.03;;;16.50;99.90;;;;;;4991618;28;20315;-55
2023/09/19 06:19:02;;;;;;;1.53;1.37;;;16.50;99.90;;;;;;4991750;28;20227;-55
2023/09/19 06:21:29;;;;;;;1.77;1.20;;;16.50;99.90;;;;;;4990066;28;20294;-55
2023/09/19 06:23:57;;;;;;;1.10;1.10;;;16.50;99.90;;;;;;4990368;28;20212;-55
2023/09/19 06:26:26;;;;;;;1.53;1.20;;;16.60;99.90;;;;;;4987485;28;20466;-55
2023/09/19 06:28:55;;;;;;;1.70;1.60;;;16.60;99.90;;;;;;4992689;28;20204;-55
2023/09/19 06:31:25;;;;;;;2.73;2.23;;;16.60;99.90;;;;;;4995671;28;20211;-55
2023/09/19 06:33:52;;;;;;;1.63;1.53;;;16.60;99.90;;;;;;4990699;28;20683;-55
2023/09/19 06:36:21;;;;;;;1.87;1.77;;;16.70;99.90;;;;;;4995032;28;20273;-55
2023/09/19 06:38:51;;;;;;;3.00;2.17;;;16.80;99.90;;;;;;4990908;28;20211;-55
2023/09/19 06:41:18;;;;;;;4.77;3.03;;;16.80;99.90;;;;;;4984242;28;20456;-55
2023/09/19 06:43:45;;;;;;;1.63;1.57;;;16.90;99.90;;;;;;4992334;28;20291;-55
2023/09/19 06:46:12;;;;;;;2.60;2.00;;;16.90;99.90;;;;;;4994701;28;20798;-55
2023/09/19 06:48:39;;;;;;;2.37;2.27;;;16.80;99.90;;;;;;4995301;28;20203;-55
2023/09/19 06:51:06;;;;;;;1.87;1.77;;;16.90;99.90;;;;;;4995135;28;20204;-55
2023/09/19 06:53:36;;;;;;;2.50;1.60;;;16.90;99.90;;;;;;4993895;28;20204;-55
2023/09/19 06:56:03;;;;;;;3.93;2.13;;;16.90;99.90;;;;;;4986451;28;20224;-56
2023/09/19 06:58:31;;;;;;;2.80;2.23;;;16.80;99.90;;;;;;4994104;28;20290;-55
2023/09/19 07:00:58;;;;;;;2.03;1.93;;;16.80;99.90;;;;;;4992269;28;20204;-55
2023/09/19 07:03:26;;;;;;;2.70;2.00;;;16.80;99.90;;;;;;4989626;28;20208;-55
2023/09/19 07:05:55;;;;;;;4.23;2.43;;;16.90;99.90;;;;;;4994345;28;20220;-55
2023/09/19 07:08:23;;;;;;;5.13;2.57;;;16.90;99.90;;;;;;4994118;28;20238;-54
2023/09/19 07:10:54;;;;;;;2.80;2.60;;;17.10;99.90;;;;;;4994821;28;20208;-55
2023/09/19 07:13:21;;;;;;;2.43;2.33;;;17.10;99.90;;;;;;4987186;28;20210;-55
2023/09/19 07:15:49;;;;;;;2.20;2.00;;;17.10;99.90;;;;;;4993622;28;20231;-55
2023/09/19 07:18:17;;;;;;;2.67;2.57;;;17.10;99.90;;;;;;4994760;28;20199;-55
2023/09/19 07:20:48;;;;;;;2.60;2.50;;;17.10;99.90;;;;;;4992726;28;20258;-55
2023/09/19 07:23:16;;;;;;;2.67;2.47;;;16.90;99.90;;;;;;4994601;28;20255;-55
2023/09/19 07:25:43;;;;;;;3.47;3.27;;;17.00;99.90;;;;;;4993449;28;20330;-55
2023/09/19 07:28:11;;;;;;;2.33;2.23;;;17.00;99.90;;;;;;4994469;28;20208;-55
2023/09/19 07:30:38;;;;;;;1.50;1.50;;;17.20;99.90;;;;;;4993607;28;20208;-55
2023/09/19 07:33:06;;;;;;;1.87;1.77;;;17.40;99.90;;;;;;4995083;28;20207;-55
2023/09/19 07:35:33;;;;;;;2.13;1.97;;;17.60;99.90;;;;;;5012563;28;20227;-57
2023/09/19 07:38:01;;;;;;;2.67;1.87;;;17.80;99.90;;;;;;5013883;28;20199;-55
2023/09/19 07:40:28;;;;;;;1.87;1.63;;;18.00;99.90;;;;;;5012669;28;20617;-61
2023/09/19 07:42:56;;;;;;;1.20;1.20;;;18.00;99.90;;;;;;5014075;28;20590;-61
2023/09/19 07:45:25;;;;;;;1.90;1.80;;;18.00;99.90;;;;;;5013468;28;20273;-63
2023/09/19 07:47:52;;;;;;;1.47;1.40;;;17.90;99.90;;;;;;4997742;28;20659;-61
2023/09/19 07:50:20;;;;;;;2.20;1.10;;;18.00;99.90;;;;;;4997785;28;20222;-61
2023/09/19 07:52:48;;;;;;;1.57;1.40;;;18.00;99.90;;;;;;5013864;28;20199;-62
2023/09/19 07:55:17;;;;;;;1.87;1.77;;;18.00;99.90;;;;;;5013462;28;20613;-62
2023/09/19 07:57:44;;;;;;;2.00;1.80;;;17.90;99.90;;;;;;5007196;28;20226;-62
2023/09/19 08:00:12;;;;;;;2.73;2.57;;;17.90;99.90;;;;;;5002266;28;20204;-62
2023/09/19 08:02:41;;;;;;;2.70;1.50;;;17.80;99.90;;;;;;4993824;28;20207;-63
2023/09/19 08:05:11;;;;;;;1.43;1.33;;;17.80;99.90;;;;;;5012013;28;20226;-61
2023/09/19 08:07:38;;;;;;;2.10;0.97;;;17.80;99.90;;;;;;5013056;28;20297;-62
2023/09/19 08:10:07;;;;;;;1.70;1.37;;;18.00;99.90;;;;;;5007833;28;20206;-61
2023/09/19 08:12:35;;;;;;;3.90;1.67;;;18.20;99.90;;;;;;5013358;28;20249;-63
2023/09/19 08:15:02;;;;;;;2.30;1.37;;;18.30;99.90;;;;;;5013177;28;20262;-62
2023/09/19 08:17:29;;;;;;;3.00;2.03;;;18.40;99.90;;;;;;5009414;28;20301;-63
2023/09/19 08:19:57;;;;;;;2.17;1.97;;;18.50;99.90;;;;;;5001640;28;20871;-63
2023/09/19 08:22:24;;;;;;;1.50;1.40;;;18.50;99.90;;;;;;5002892;28;20668;-64
2023/09/19 08:24:51;;;;;;;4.17;2.37;;;18.70;99.90;;;;;;5012899;28;20281;-62
2023/09/19 08:27:19;;;;;;;1.80;1.70;;;18.70;99.90;;;;;;5012586;28;20752;-64
2023/09/19 08:29:46;;;;;;;2.03;1.60;;;18.90;99.90;;;;;;5012971;28;20207;-63
2023/09/19 08:32:14;;;;;;;2.57;2.13;;;19.00;99.90;;;;;;5012945;28;20698;-63
2023/09/19 08:34:41;;;;;;;1.53;1.53;;;19.70;99.90;;;;;;4997103;28;20223;-63
2023/09/19 08:37:10;;;;;;;1.23;0.90;;;20.20;99.90;;;;;;5005210;28;20816;-63
2023/09/19 08:39:37;;;;;;;1.53;1.47;;;20.40;99.90;;;;;;5004860;28;20326;-65
2023/09/19 08:42:06;;;;;;;1.63;1.17;;;20.70;99.90;;;;;;4992827;28;20744;-65
2023/09/19 08:44:40;;;;;;;1.17;1.07;;;20.90;99.90;;;;;;4992879;28;20650;-64
2023/09/19 08:47:11;;;;;;;1.60;1.50;;;21.10;99.90;;;;;;4992492;28;20243;-67
2023/09/19 08:49:53;;;;;;;4.83;0.90;;;21.40;99.90;;;;;;4993094;28;20236;-64
2023/09/19 08:52:26;;;;;;;2.30;0.80;;;21.90;99.90;;;;;;4990750;28;20200;-68
2023/09/19 08:55:01;;;;;;;2.20;1.00;;;21.80;99.90;;;;;;4992828;28;20234;-63
2023/09/19 08:57:30;;;;;;;2.23;0.60;;;21.60;99.90;;;;;;4995888;28;20229;-65
2023/09/19 08:59:59;;;;;;;1.70;0.70;;;21.40;99.90;;;;;;5050961;23;20270;-58
2023/09/19 09:02:29;;;;;;;1.13;0.93;;;21.20;99.90;;;;;;4995145;28;20222;-58
2023/09/19 09:04:57;;;;;;;1.07;0.63;;;20.90;99.90;;;;;;5008690;28;20250;-58
2023/09/19 09:07:27;;;;;;;1.17;0.60;;;20.80;99.90;;;;;;5004942;28;20223;-58
2023/09/19 09:09:54;;;;;;;1.13;1.10;;;20.50;99.90;;;;;;5000149;28;20639;-58
2023/09/19 09:12:22;;;;;;;2.93;1.27;;;20.20;99.90;;;;;;5011691;28;20249;-59
2023/09/19 09:14:49;;;;;;;1.57;1.03;;;19.90;99.90;;;;;;5001873;28;20211;-58
2023/09/19 09:17:20;;;;;;;2.07;0.97;;;19.90;99.90;;;;;;5001057;28;20228;-58
2023/09/19 09:19:47;;;;;;;1.43;1.10;;;19.80;99.90;;;;;;4991968;28;20607;-57
2023/09/19 09:22:14;;;;;;;1.93;1.30;;;19.50;99.90;;;;;;5000086;28;20235;-57
2023/09/19 09:24:57;;;;;;;1.17;1.17;;;19.30;99.90;;;;;;4991782;28;20204;-58
2023/09/19 09:27:24;;;;;;;1.20;1.10;;;19.30;99.90;;;;;;4989186;28;20247;-56
2023/09/19 09:29:55;;;;;;;1.07;0.97;;;19.30;99.90;;;;;;4989830;28;20318;-58
2023/09/19 09:32:24;;;;;;;0.60;0.60;;;19.20;99.90;;;;;;4983840;28;20228;-57
2023/09/19 09:34:53;;;;;;;7.53;2.70;;;19.20;99.90;;;;;;4990815;28;20203;-58
2023/09/19 09:37:20;;;;;;;1.40;0.80;;;19.20;99.90;;;;;;4991168;28;20699;-57
2023/09/19 09:39:53;;;;;;;0.80;0.60;;;19.10;99.90;;;;;;4991535;28;20282;-57
2023/09/19 09:42:35;;;;;;;0.60;0.60;;;18.90;99.90;;;;;;4991889;28;20282;-58
2023/09/19 09:45:16;;;;;;;1.60;0.90;;;18.80;99.90;;;;;;4990511;28;20208;-58
2023/09/19 09:47:49;;;;;;;0.53;0.43;;;18.90;99.90;;;;;;4991289;28;20254;-58
2023/09/19 09:50:38;;;;;;;0.40;0.40;;;18.90;99.90;;;;;;4991505;28;20203;-58
2023/09/19 09:53:07;;;;;;;0.40;0.40;;;18.70;99.90;;;;;;4991366;28;20246;-57
2023/09/19 09:55:59;;;;;;;0.93;0.67;;;18.80;99.90;;;;;;4991157;28;20229;-58
2023/09/19 09:58:29;;;;;;;0.70;0.47;;;18.90;99.90;;;;;;4991218;28;20310;-59
2023/09/19 10:01:02;;;;;;;1.40;0.63;;;19.20;99.90;;;;;;4990045;28;20226;-59
2023/09/19 10:03:38;;;;;;;0.50;0.40;;;19.60;99.90;;;;;;4992358;28;20203;-58
2023/09/19 10:06:19;;;;;;;0.30;0.30;;;19.80;99.90;;;;;;4993362;28;20301;-60
2023/09/19 10:09:05;;;;;;;0.40;0.40;;;20.10;99.90;;;;;;4990677;28;20270;-60
2023/09/19 10:11:39;;;;;;;1.80;0.37;;;20.30;99.90;;;;;;4995610;28;20238;-60
2023/09/19 10:14:08;;;;;;;0.43;0.40;;;20.40;99.90;;;;;;4993543;28;20212;-60
2023/09/19 10:16:39;;;;;;;0.40;0.33;;;20.60;99.90;;;;;;4993135;28;20667;-60
2023/09/19 10:19:09;;;;;;;0.30;0.30;;;20.80;99.90;;;;;;4994899;28;20228;-60
2023/09/19 10:21:37;;;;;;;0.60;0.40;;;21.40;99.90;;;;;;4995368;28;20727;-60
2023/09/19 10:24:09;;;;;;;0.50;0.27;;;22.20;99.90;;;;;;4996480;28;20204;-60
2023/09/19 10:26:39;;;;;;;1.23;0.33;;;23.00;99.90;;;;;;4994745;28;20713;-60
2023/09/19 10:29:10;;;;;;;0.67;0.40;;;24.00;99.90;;;;;;4993437;28;20282;-60
2023/09/19 10:31:40;;;;;;;1.40;0.60;;;24.70;99.90;;;;;;4991972;28;20287;-54
2023/09/19 10:34:09;;;;;;;0.70;0.30;;;24.60;99.90;;;;;;4993853;28;20667;-54
2023/09/19 10:36:38;;;;;;;0.67;0.30;;;25.00;99.90;;;;;;5002296;28;20302;-54
2023/09/19 10:39:08;;;;;;;0.53;0.40;;;25.00;99.90;;;;;;4994806;28;20223;-53
2023/09/19 10:41:37;;;;;;;0.27;0.27;;;24.90;99.90;;;;;;4994767;28;20661;-53
2023/09/19 10:44:06;;;;;;;0.30;0.30;;;24.60;99.90;;;;;;4994668;28;20208;-53
2023/09/19 10:46:33;;;;;;;3.30;0.40;;;24.30;99.90;;;;;;4999681;28;20221;-53
2023/09/19 10:49:04;;;;;;;0.40;0.40;;;24.40;99.90;;;;;;4997570;28;20282;-60
2023/09/19 10:51:39;;;;;;;0.33;0.30;;;24.20;99.90;;;;;;4993048;28;20582;-59
2023/09/19 10:54:11;;;;;;;0.97;0.40;;;24.00;99.90;;;;;;4994647;28;20207;-58
2023/09/19 10:56:46;;;;;;;0.30;0.30;;;24.00;99.90;;;;;;4994020;28;20204;-59
2023/09/19 10:59:15;;;;;;;0.30;0.30;;;24.00;99.90;;;;;;4994226;28;20231;-57
2023/09/19 11:01:47;;;;;;;0.30;0.30;;;23.80;99.90;;;;;;4994644;28;20235;-58
2023/09/19 11:04:27;;;;;;;0.30;0.30;;;23.40;99.90;;;;;;4994363;28;20221;-58
2023/09/19 11:07:08;;;;;;;0.30;0.30;;;23.50;99.90;;;;;;4992716;28;20690;-58
2023/09/19 11:09:47;;;;;;;0.83;0.30;;;23.50;99.90;;;;;;4987915;28;20719;-59
2023/09/19 11:12:50;;;;;;;0.20;0.20;;;23.70;99.90;;;;;;4993991;28;20204;-59
2023/09/19 11:15:54;;;;;;;1.10;0.30;;;24.10;99.90;;;;;;4993706;28;20632;-59
2023/09/19 11:18:53;;;;;;;0.30;0.30;;;24.20;99.90;;;;;;4993896;28;20610;-59
2023/09/19 11:21:58;;;;;;;0.53;0.23;;;24.10;99.90;;;;;;4994431;28;20234;-60
2023/09/19 11:24:37;;;;;;;0.10;0.10;;;24.00;99.90;;;;;;4992469;28;20254;-59
2023/09/19 11:27:18;;;;;;;0.70;0.20;;;23.80;99.90;;;;;;4990910;28;20199;-60
2023/09/19 11:29:46;;;;;;;0.30;0.30;;;23.90;99.90;;;;;;4993822;28;20262;-60
2023/09/19 11:32:14;;;;;;;0.40;0.40;;;23.80;99.90;;;;;;4993746;28;20260;-60
2023/09/19 11:34:46;;;;;;;0.33;0.30;;;23.70;99.90;;;;;;4992941;28;20234;-55
2023/09/19 11:38:02;;;;;;;0.20;0.20;;;23.40;99.90;;;;;;4993460;28;20223;-60
2023/09/19 11:40:30;;;;;;;0.30;0.30;;;23.40;99.90;;;;;;4973083;28;20681;-60
2023/09/19 11:42:59;;;;;;;1.10;0.23;;;23.50;99.90;;;;;;4993556;28;20208;-60
2023/09/19 11:46:08;;;;;;;1.60;0.40;;;23.80;99.90;;;;;;4985912;28;20208;-59
2023/09/19 11:48:38;;;;;;;0.40;0.40;;;23.70;99.90;;;;;;4986455;28;20282;-59
2023/09/19 11:51:19;;;;;;;0.30;0.30;;;23.80;99.90;;;;;;4992894;28;20208;-59
2023/09/19 11:53:48;;;;;;;0.23;0.23;;;23.70;99.90;;;;;;4993601;28;20271;-58
2023/09/19 11:56:17;;;;;;;0.90;0.30;;;23.50;99.90;;;;;;4992962;28;20628;-58
2023/09/19 11:58:46;;;;;;;0.30;0.30;;;23.30;99.90;;;;;;4993280;28;20224;-59
2023/09/19 12:01:22;;;;;;;0.50;0.50;;;23.10;99.90;;;;;;4993201;28;20295;-59
2023/09/19 12:03:54;;;;;;;0.30;0.30;;;23.10;99.90;;;;;;4992501;28;20596;-59
2023/09/19 12:06:22;;;;;;;0.30;0.20;;;23.20;99.90;;;;;;4992878;28;20195;-59
2023/09/19 12:08:50;;;;;;;0.70;0.20;;;23.30;99.90;;;;;;4993258;28;20315;-59
2023/09/19 12:11:20;;;;;;;1.53;0.40;;;23.30;99.90;;;;;;4991373;28;20204;-59
2023/09/19 12:13:49;;;;;;;0.97;0.30;;;23.40;99.90;;;;;;4993101;28;20579;-60
2023/09/19 12:16:21;;;;;;;1.53;0.30;;;23.40;99.90;;;;;;4992561;28;20288;-60
2023/09/19 12:18:50;;;;;;;0.30;0.30;;;23.60;99.90;;;;;;4992231;28;20228;-60
2023/09/19 12:21:24;;;;;;;1.20;0.30;;;23.80;99.90;;;;;;4992588;28;20703;-61
2023/09/19 12:23:59;;;;;;;0.40;0.20;;;23.90;99.90;;;;;;4992854;28;20687;-59
2023/09/19 12:26:28;;;;;;;0.40;0.40;;;24.00;99.90;;;;;;4991763;28;20227;-60
2023/09/19 12:28:57;;;;;;;0.33;0.30;;;24.00;99.90;;;;;;4990850;28;20212;-58
2023/09/19 12:31:26;;;;;;;0.27;0.27;;;23.80;99.90;;;;;;4988845;28;20671;-57
2023/09/19 12:33:56;;;;;;;0.30;0.20;;;23.60;99.90;;;;;;4992652;28;20735;-59
2023/09/19 12:36:29;;;;;;;1.23;0.20;;;23.60;99.90;;;;;;4986475;28;20208;-59
2023/09/19 12:38:59;;;;;;;0.30;0.30;;;23.40;99.90;;;;;;4992264;28;20310;-59
2023/09/19 12:41:26;;;;;;;0.60;0.40;;;23.20;99.90;;;;;;4992532;28;20240;-58
2023/09/19 12:43:54;;;;;;;0.47;0.47;;;23.00;99.90;;;;;;4992638;28;20235;-59
2023/09/19 12:46:25;;;;;;;0.40;0.30;;;23.10;99.90;;;;;;4992014;28;20296;-58
2023/09/19 12:49:18;;;;;;;0.27;0.27;;;22.80;99.90;;;;;;4992404;28;20222;-58
2023/09/19 12:51:46;;;;;;;0.40;0.30;;;22.60;99.90;;;;;;4991481;28;20207;-58
2023/09/19 12:54:14;;;;;;;0.30;0.30;;;22.60;99.90;;;;;;4991275;28;20204;-58
2023/09/19 12:56:44;;;;;;;0.30;0.27;;;22.40;99.90;;;;;;4991888;28;20210;-59
2023/09/19 12:59:13;;;;;;;0.43;0.40;;;22.50;99.90;;;;;;4991923;28;20758;-59
2023/09/19 13:01:46;;;;;;;0.30;0.30;;;22.70;99.90;;;;;;4992101;28;20307;-59
2023/09/19 13:04:26;;;;;;;0.33;0.33;;;22.70;99.90;;;;;;4992061;28;20215;-59